createdAt,value
2022-09-01T00:01:54.463Z,19.0
2022-09-01T00:21:54.431Z,18.9
2022-09-01T00:41:54.426Z,18.9
2022-09-01T01:01:54.349Z,18.9
2022-09-01T01:21:54.293Z,19.0
2022-09-01T01:41:54.285Z,18.6
2022-09-01T02:01:54.263Z,18.3
2022-09-01T02:21:54.295Z,18.4
2022-09-01T02:41:54.194Z,17.9
2022-09-01T03:01:54.328Z,17.7
2022-09-01T03:21:54.158Z,17.9
2022-09-01T03:41:54.120Z,17.3
2022-09-01T04:01:54.094Z,17.4
2022-09-01T04:21:54.114Z,17.3
2022-09-01T04:41:54.134Z,16.9
2022-09-01T05:01:54.037Z,17.0
2022-09-01T05:21:54.034Z,17.0
2022-09-01T05:41:53.977Z,16.6
2022-09-01T06:01:53.956Z,16.7
2022-09-01T06:21:53.929Z,17.0
2022-09-01T06:41:53.899Z,17.8
2022-09-01T07:01:53.915Z,18.0
2022-09-01T07:21:53.868Z,18.5
2022-09-01T07:41:53.924Z,18.7
2022-09-01T08:01:53.811Z,19.1
2022-09-01T08:21:53.797Z,19.2
2022-09-01T08:41:53.766Z,19.8
2022-09-01T09:01:53.735Z,20.8
2022-09-01T09:21:53.729Z,21.3
2022-09-01T09:41:53.697Z,21.5
2022-09-01T10:01:53.652Z,21.9
2022-09-01T10:21:53.705Z,22.0
2022-09-01T10:41:53.650Z,22.5
2022-09-01T11:01:53.724Z,22.6
2022-09-01T11:21:53.550Z,23.8
2022-09-01T11:41:53.568Z,24.1
2022-09-01T12:01:53.540Z,25.0
2022-09-01T12:21:53.473Z,24.7
2022-09-01T12:41:53.536Z,25.6
2022-09-01T13:01:53.497Z,26.5
2022-09-01T13:21:53.534Z,25.9
2022-09-01T13:41:53.382Z,26.6
2022-09-01T14:01:53.357Z,27.0
2022-09-01T14:21:53.371Z,26.1
2022-09-01T14:41:53.397Z,26.5
2022-09-01T15:01:53.308Z,26.0
2022-09-01T15:41:53.206Z,25.4
2022-09-01T16:01:53.187Z,25.3
2022-09-01T16:21:53.170Z,25.1
2022-09-01T16:41:53.143Z,24.6
2022-09-01T17:01:53.123Z,24.2
2022-09-01T17:21:53.172Z,23.8
2022-09-01T17:41:53.073Z,23.5
2022-09-01T18:01:53.065Z,23.5
2022-09-01T18:21:52.998Z,23.0
2022-09-01T18:41:52.984Z,22.4
2022-09-01T19:01:52.943Z,22.1
2022-09-01T19:21:52.927Z,22.0
2022-09-01T19:41:52.910Z,21.7
2022-09-01T20:01:52.891Z,21.3
2022-09-01T20:41:52.937Z,20.9
2022-09-01T21:01:52.789Z,20.5
2022-09-01T21:21:52.766Z,20.3
2022-09-01T21:41:52.741Z,20.4
2022-09-01T22:01:52.743Z,20.3
2022-09-01T22:21:52.689Z,20.3
2022-09-01T22:41:52.661Z,20.1
2022-09-01T23:01:52.645Z,20.0
2022-09-01T23:21:52.612Z,19.9
2022-09-01T23:41:52.674Z,19.9
